CYYT

St. John's International Airport

St. John's, Canada
TAF AMD CYYT 182302Z 1823/1918 20012G22KT P6SM FEW015 OVC060 TEMPO 1823/1902 5SM -RA BR SCT004 OVC015 PROB30 1823/1902 2SM -RA BR OVC004 FM190200 18015G25KT P6SM BKN025 TEMPO 1902/1908 6SM -RASN BR FM190800 19015G25KT 3SM -SN OVC012 TEMPO 1908/1913 P6SM -SN BECMG 1910/1912 27020G30KT FM191300 27020G30KT P6SM BKN015 RMK NXT FCST BY 190000Z
Issued Valid From Valid To
Dec-18 @ 23:02 UTC
(16 minutes ago)
Dec-18 @ 23:00 UTC
(18 minutes ago)
Dec-19 @ 18:00 UTC
(in 19 hours)
Dec-18 @ 23:00 to Dec-19 @ 02:00
TAF AMD CYYT 182302Z 1823/1918 20012G22KT P6SM FEW015 OVC060
Wind Visibility Clouds
200° at 12 knots
 Gusting to 22 knots
Greater than 6 miles
  • Few at 1,500' AGL
  • Overcast at 6,000' AGL
Probable  (Probability 30%) Dec-18 @ 23:00 to Dec-19 @ 02:00
PROB30 1823/1902 2SM -RA BR OVC004
Visibility Clouds Conditions
2 miles
  • Overcast at 400' AGL
  • Light Rain
  • Mist
Temporary Dec-18 @ 23:00 to Dec-19 @ 02:00
TEMPO 1823/1902 5SM -RA BR SCT004 OVC015
Visibility Clouds Conditions
5 miles
  • Scattered at 400' AGL
  • Overcast at 1,500' AGL
  • Light Rain
  • Mist
From Dec-19 @ 02:00 to Dec-19 @ 08:00
FM190200 18015G25KT P6SM BKN025
Wind Visibility Clouds
180° at 15 knots
 Gusting to 25 knots
Greater than 6 miles
  • Broken at 2,500' AGL
Temporary Dec-19 @ 02:00 to Dec-19 @ 08:00
TEMPO 1902/1908 6SM -RASN BR
Visibility Conditions
6 miles
  • Light Rain
  • Light Snow
  • Mist
From Dec-19 @ 08:00 to Dec-19 @ 10:00
FM190800 19015G25KT 3SM -SN OVC012
Wind Visibility Clouds Conditions
190° at 15 knots
 Gusting to 25 knots
3 miles
  • Overcast at 1,200' AGL
  • Light Snow
Temporary Dec-19 @ 08:00 to Dec-19 @ 13:00
TEMPO 1908/1913 P6SM -SN
Visibility Conditions
Greater than 6 miles
  • Light Snow
Becoming Dec-19 @ 10:00 to Dec-19 @ 13:00
BECMG 1910/1912 27020G30KT
Wind Visibility Clouds Conditions
270° at 20 knots
 Gusting to 30 knots
3 miles
  • Overcast at 1,200' AGL
  • Light Snow
From Dec-19 @ 13:00 to Dec-19 @ 18:00
FM191300 27020G30KT P6SM BKN015 RMK NXT FCST BY 190000Z
Wind Visibility Clouds
270° at 20 knots
 Gusting to 30 knots
Greater than 6 miles
  • Broken at 1,500' AGL
TAF AMD CYYT 182302Z 1823/1918 20012G22KT P6SM FEW015 OVC060 TEMPO 1823/1902 5SM -RA BR SCT004 OVC015 PROB30 1823/1902 2SM -RA BR OVC004 FM190200 18015G25KT P6SM BKN025 TEMPO 1902/1908 6SM -RASN BR FM190800 19015G25KT 3SM -SN OVC012 TEMPO 1908/1913 P6SM -SN BECMG 1910/1912 27020G30KT FM191300 27020G30KT P6SM BKN015 RMK NXT FCST BY 190000Z
Issued Dec-18 @ 23:02 UTC
(16 minutes ago)
Valid From Dec-18 @ 23:00 UTC
(18 minutes ago)
Valid To Dec-19 @ 18:00 UTC
(in 19 hours)
Dec-18 @ 23:00 - Dec-19 @ 02:00
Wind Visibility
200° at 12 knots
 Gusting to 22 knots
Greater than 6 miles
Clouds
  • Few at 1,500' AGL
  • Overcast at 6,000' AGL
Probability 30% Probable Dec-18 @ 23:00 - Dec-19 @ 02:00
Clouds
  • Overcast at 400' AGL
Conditions
  • Light Rain
  • Mist
Temporary Dec-18 @ 23:00 - Dec-19 @ 02:00
Clouds
  • Scattered at 400' AGL
  • Overcast at 1,500' AGL
Conditions
  • Light Rain
  • Mist
From Dec-19 @ 02:00 - Dec-19 @ 08:00
Wind Visibility
180° at 15 knots
 Gusting to 25 knots
Greater than 6 miles
Clouds
  • Broken at 2,500' AGL
Temporary Dec-19 @ 02:00 - Dec-19 @ 08:00
Conditions
  • Light Rain
  • Light Snow
  • Mist
From Dec-19 @ 08:00 - Dec-19 @ 10:00
Wind Visibility
190° at 15 knots
 Gusting to 25 knots
3 miles
Clouds
  • Overcast at 1,200' AGL
Conditions
  • Light Snow
Temporary Dec-19 @ 08:00 - Dec-19 @ 13:00
Conditions
  • Light Snow
Becoming Dec-19 @ 10:00 - Dec-19 @ 13:00
Wind Visibility
270° at 20 knots
 Gusting to 30 knots
3 miles
Clouds
  • Overcast at 1,200' AGL
Conditions
  • Light Snow
From Dec-19 @ 13:00 - Dec-19 @ 18:00
Wind Visibility
270° at 20 knots
 Gusting to 30 knots
Greater than 6 miles
Clouds
  • Broken at 1,500' AGL